sensor_id;sensor_type;location;lat;lon;timestamp;pressure;altitude;pressure_sealevel;temperature;humidity
51099;BME280;37146;48.210;16.234;2022-11-09T00:02:14;98973.59;;;5.83;100.00
51099;BME280;37146;48.210;16.234;2022-11-09T00:04:39;98979.44;;;5.94;100.00
51099;BME280;37146;48.210;16.234;2022-11-09T00:07:04;98980.22;;;5.96;100.00
51099;BME280;37146;48.210;16.234;2022-11-09T00:09:29;98974.41;;;5.85;100.00
51099;BME280;37146;48.210;16.234;2022-11-09T00:11:55;98979.53;;;5.91;100.00
51099;BME280;37146;48.210;16.234;2022-11-09T00:14:20;98978.50;;;5.95;100.00
51099;BME280;37146;48.210;16.234;2022-11-09T00:16:45;98976.66;;;5.97;100.00
51099;BME280;37146;48.210;16.234;2022-11-09T00:19:10;98976.66;;;5.97;100.00
51099;BME280;37146;48.210;16.234;2022-11-09T00:21:37;98983.09;;;5.90;100.00
51099;BME280;37146;48.210;16.234;2022-11-09T00:24:02;98977.84;;;5.88;100.00
51099;BME280;37146;48.210;16.234;2022-11-09T00:26:27;98977.72;;;5.92;100.00
51099;BME280;37146;48.210;16.234;2022-11-09T00:28:53;98971.63;;;5.90;100.00
51099;BME280;37146;48.210;16.234;2022-11-09T00:31:20;98969.81;;;5.90;100.00
51099;BME280;37146;48.210;16.234;2022-11-09T00:33:49;98977.78;;;5.90;100.00
51099;BME280;37146;48.210;16.234;2022-11-09T00:36:14;98975.97;;;5.91;100.00
51099;BME280;37146;48.210;16.234;2022-11-09T00:38:40;98974.28;;;5.90;100.00
51099;BME280;37146;48.210;16.234;2022-11-09T00:41:07;98968.91;;;5.91;100.00
51099;BME280;37146;48.210;16.234;2022-11-09T00:43:32;98972.38;;;5.93;100.00
51099;BME280;37146;48.210;16.234;2022-11-09T00:45:58;98980.38;;;5.92;100.00
51099;BME280;37146;48.210;16.234;2022-11-09T00:48:23;98985.84;;;5.87;100.00
51099;BME280;37146;48.210;16.234;2022-11-09T00:50:49;98978.50;;;5.95;100.00
51099;BME280;37146;48.210;16.234;2022-11-09T00:53:14;98982.03;;;5.96;100.00
51099;BME280;37146;48.210;16.234;2022-11-09T00:55:40;98980.09;;;6.01;100.00
51099;BME280;37146;48.210;16.234;2022-11-09T00:58:05;98977.50;;;5.99;100.00
51099;BME280;37146;48.210;16.234;2022-11-09T01:00:30;98976.59;;;6.00;100.00
51099;BME280;37146;48.210;16.234;2022-11-09T01:02:55;98973.06;;;5.98;100.00
51099;BME280;37146;48.210;16.234;2022-11-09T01:05:20;98969.44;;;6.02;100.00
51099;BME280;37146;48.210;16.234;2022-11-09T01:07:45;98976.44;;;6.05;100.00
51099;BME280;37146;48.210;16.234;2022-11-09T01:10:11;98973.84;;;6.03;100.00
51099;BME280;37146;48.210;16.234;2022-11-09T01:12:36;98977.34;;;6.04;100.00
51099;BME280;37146;48.210;16.234;2022-11-09T01:15:01;98973.84;;;6.03;100.00
51099;BME280;37146;48.210;16.234;2022-11-09T01:17:26;98972.91;;;6.05;100.00
51099;BME280;37146;48.210;16.234;2022-11-09T01:19:52;98970.28;;;6.03;100.00
51099;BME280;37146;48.210;16.234;2022-11-09T01:22:17;98964.06;;;6.04;100.00
51099;BME280;37146;48.210;16.234;2022-11-09T01:24:45;98965.91;;;6.02;100.00
51099;BME280;37146;48.210;16.234;2022-11-09T01:27:10;98967.72;;;6.01;100.00
51099;BME280;37146;48.210;16.234;2022-11-09T01:29:36;98964.03;;;6.06;100.00
51099;BME280;37146;48.210;16.234;2022-11-09T01:32:01;98964.03;;;6.06;100.00
51099;BME280;37146;48.210;16.234;2022-11-09T01:34:27;98963.22;;;6.03;100.00
51099;BME280;37146;48.210;16.234;2022-11-09T01:36:52;98956.88;;;6.08;100.00
51099;BME280;37146;48.210;16.234;2022-11-09T01:39:17;98957.78;;;6.07;100.00
51099;BME280;37146;48.210;16.234;2022-11-09T01:41:43;98955.94;;;6.09;100.00
51099;BME280;37146;48.210;16.234;2022-11-09T01:46:41;98960.44;;;6.07;100.00
51099;BME280;37146;48.210;16.234;2022-11-09T01:49:13;98947.94;;;6.10;100.00
51099;BME280;37146;48.210;16.234;2022-11-09T01:51:41;98951.56;;;6.08;100.00
51099;BME280;37146;48.210;16.234;2022-11-09T01:54:19;98948.91;;;6.08;100.00
51099;BME280;37146;48.210;16.234;2022-11-09T01:56:47;98953.41;;;6.06;100.00
51099;BME280;37146;48.210;16.234;2022-11-09T01:59:15;98953.28;;;6.09;100.00
51099;BME280;37146;48.210;16.234;2022-11-09T02:01:42;98949.81;;;6.07;100.00
51099;BME280;37146;48.210;16.234;2022-11-09T02:04:09;98941.81;;;6.08;100.00
51099;BME280;37146;48.210;16.234;2022-11-09T02:06:36;98944.41;;;6.10;100.00
51099;BME280;37146;48.210;16.234;2022-11-09T02:09:07;98947.06;;;6.10;100.00
51099;BME280;37146;48.210;16.234;2022-11-09T02:11:33;98944.38;;;6.11;100.00
51099;BME280;37146;48.210;16.234;2022-11-09T02:14:01;98950.63;;;6.09;100.00
51099;BME280;37146;48.210;16.234;2022-11-09T02:16:27;98946.16;;;6.11;100.00
51099;BME280;37146;48.210;16.234;2022-11-09T02:18:53;98948.72;;;6.12;100.00
51099;BME280;37146;48.210;16.234;2022-11-09T02:21:19;98954.13;;;6.11;100.00
51099;BME280;37146;48.210;16.234;2022-11-09T02:23:45;98964.66;;;6.12;100.00
51099;BME280;37146;48.210;16.234;2022-11-09T02:26:12;98976.09;;;6.16;100.00
51099;BME280;37146;48.210;16.234;2022-11-09T02:28:38;98975.19;;;6.15;100.00
51099;BME280;37146;48.210;16.234;2022-11-09T02:31:05;98975.25;;;6.14;100.00
51099;BME280;37146;48.210;16.234;2022-11-09T02:36:26;98954.84;;;6.16;100.00
51099;BME280;37146;48.210;16.234;2022-11-09T02:38:52;98958.28;;;6.18;100.00
51099;BME280;37146;48.210;16.234;2022-11-09T02:41:19;98949.53;;;6.16;100.00
51099;BME280;37146;48.210;16.234;2022-11-09T02:43:44;98945.81;;;6.20;100.00
51099;BME280;37146;48.210;16.234;2022-11-09T02:46:10;98943.28;;;6.17;100.00
51099;BME280;37146;48.210;16.234;2022-11-09T02:48:35;98949.28;;;6.22;100.00
51099;BME280;37146;48.210;16.234;2022-11-09T02:51:00;98952.97;;;6.18;100.00
51099;BME280;37146;48.210;16.234;2022-11-09T02:53:25;98958.19;;;6.21;100.00
51099;BME280;37146;48.210;16.234;2022-11-09T02:55:50;98951.88;;;6.24;100.00
51099;BME280;37146;48.210;16.234;2022-11-09T02:58:16;98944.09;;;6.19;100.00
51099;BME280;37146;48.210;16.234;2022-11-09T03:00:41;98940.41;;;6.23;100.00
51099;BME280;37146;48.210;16.234;2022-11-09T03:03:06;98942.25;;;6.21;100.00
51099;BME280;37146;48.210;16.234;2022-11-09T03:05:31;98943.13;;;6.22;100.00
51099;BME280;37146;48.210;16.234;2022-11-09T03:07:57;98936.09;;;6.21;100.00
51099;BME280;37146;48.210;16.234;2022-11-09T03:10:26;98927.19;;;6.22;100.00
51099;BME280;37146;48.210;16.234;2022-11-09T03:12:51;98940.34;;;6.25;100.00
51099;BME280;37146;48.210;16.234;2022-11-09T03:15:17;98936.84;;;6.24;100.00
51099;BME280;37146;48.210;16.234;2022-11-09T03:17:43;98943.06;;;6.23;100.00
51099;BME280;37146;48.210;16.234;2022-11-09T03:20:08;98948.38;;;6.23;100.00
51099;BME280;37146;48.210;16.234;2022-11-09T03:22:33;98946.56;;;6.24;100.00
51099;BME280;37146;48.210;16.234;2022-11-09T03:24:59;98949.22;;;6.24;100.00
51099;BME280;37146;48.210;16.234;2022-11-09T03:27:24;98943.13;;;6.22;100.00
51099;BME280;37146;48.210;16.234;2022-11-09T03:29:49;98944.75;;;6.26;100.00
51099;BME280;37146;48.210;16.234;2022-11-09T03:32:14;98947.34;;;6.27;100.00
51099;BME280;37146;48.210;16.234;2022-11-09T03:34:39;98950.06;;;6.26;100.00
51099;BME280;37146;48.210;16.234;2022-11-09T03:37:05;98946.47;;;6.27;100.00
51099;BME280;37146;48.210;16.234;2022-11-09T03:39:30;98945.63;;;6.26;100.00
51099;BME280;37146;48.210;16.234;2022-11-09T03:41:55;98953.47;;;6.29;100.00
51099;BME280;37146;48.210;16.234;2022-11-09T03:44:20;98949.88;;;6.30;100.00
51099;BME280;37146;48.210;16.234;2022-11-09T03:46:46;98952.50;;;6.32;100.00
51099;BME280;37146;48.210;16.234;2022-11-09T03:49:12;98953.44;;;6.31;100.00
51099;BME280;37146;48.210;16.234;2022-11-09T03:51:37;98951.59;;;6.33;100.00
51099;BME280;37146;48.210;16.234;2022-11-09T03:54:02;98955.16;;;6.32;100.00
51099;BME280;37146;48.210;16.234;2022-11-09T03:56:27;98959.56;;;6.33;100.00
51099;BME280;37146;48.210;16.234;2022-11-09T03:58:53;98951.59;;;6.33;100.00
51099;BME280;37146;48.210;16.234;2022-11-09T04:01:18;98954.19;;;6.34;100.00
51099;BME280;37146;48.210;16.234;2022-11-09T04:03:43;98952.28;;;6.38;100.00
51099;BME280;37146;48.210;16.234;2022-11-09T04:06:08;98955.91;;;6.36;100.00
51099;BME280;37146;48.210;16.234;2022-11-09T04:08:33;98954.09;;;6.38;100.00
51099;BME280;37146;48.210;16.234;2022-11-09T04:10:59;98954.19;;;6.34;100.00
51099;BME280;37146;48.210;16.234;2022-11-09T04:13:24;98944.25;;;6.40;100.00
51099;BME280;37146;48.210;16.234;2022-11-09T04:15:49;98943.31;;;6.41;100.00
51099;BME280;37146;48.210;16.234;2022-11-09T04:18:15;98934.44;;;6.42;100.00
51099;BME280;37146;48.210;16.234;2022-11-09T04:20:40;98928.19;;;6.43;100.00
51099;BME280;37146;48.210;16.234;2022-11-09T04:23:06;98931.78;;;6.42;100.00
51099;BME280;37146;48.210;16.234;2022-11-09T04:25:34;98924.63;;;6.44;100.00
51099;BME280;37146;48.210;16.234;2022-11-09T04:28:00;98933.59;;;6.41;100.00
51099;BME280;37146;48.210;16.234;2022-11-09T04:30:27;98924.63;;;6.44;100.00
51099;BME280;37146;48.210;16.234;2022-11-09T04:32:53;98925.53;;;6.43;100.00
51099;BME280;37146;48.210;16.234;2022-11-09T04:35:18;98928.16;;;6.44;100.00
51099;BME280;37146;48.210;16.234;2022-11-09T04:37:43;98923.69;;;6.45;100.00
51099;BME280;37146;48.210;16.234;2022-11-09T04:40:16;98926.34;;;6.45;100.00
51099;BME280;37146;48.210;16.234;2022-11-09T04:42:41;98929.94;;;6.44;100.00
51099;BME280;37146;48.210;16.234;2022-11-09T04:45:06;98925.50;;;6.44;100.00
51099;BME280;37146;48.210;16.234;2022-11-09T04:47:32;98920.97;;;6.46;100.00
51099;BME280;37146;48.210;16.234;2022-11-09T04:49:57;98912.97;;;6.48;100.00
51099;BME280;37146;48.210;16.234;2022-11-09T04:52:22;98913.91;;;6.47;100.00
51099;BME280;37146;48.210;16.234;2022-11-09T04:54:47;98917.41;;;6.47;100.00
51099;BME280;37146;48.210;16.234;2022-11-09T04:57:13;98913.91;;;6.47;100.00
51099;BME280;37146;48.210;16.234;2022-11-09T04:59:38;98916.44;;;6.50;100.00
51099;BME280;37146;48.210;16.234;2022-11-09T05:02:03;98909.41;;;6.49;100.00
51099;BME280;37146;48.210;16.234;2022-11-09T05:04:28;98903.09;;;6.52;100.00
51099;BME280;37146;48.210;16.234;2022-11-09T05:06:53;98909.25;;;6.52;100.00
51099;BME280;37146;48.210;16.234;2022-11-09T05:09:19;98912.00;;;6.50;100.00
51099;BME280;37146;48.210;16.234;2022-11-09T05:11:44;98910.16;;;6.53;100.00
51099;BME280;37146;48.210;16.234;2022-11-09T05:14:09;98910.16;;;6.53;100.00
51099;BME280;37146;48.210;16.234;2022-11-09T05:16:34;98914.56;;;6.52;100.00
51099;BME280;37146;48.210;16.234;2022-11-09T05:18:59;98926.91;;;6.55;100.00
51099;BME280;37146;48.210;16.234;2022-11-09T05:21:25;98932.16;;;6.56;100.00
51099;BME280;37146;48.210;16.234;2022-11-09T05:23:51;98933.13;;;6.54;100.00
51099;BME280;37146;48.210;16.234;2022-11-09T05:26:28;98934.88;;;6.55;100.00
51099;BME280;37146;48.210;16.234;2022-11-09T05:28:53;98937.56;;;6.53;100.00
51099;BME280;37146;48.210;16.234;2022-11-09T05:31:19;98940.13;;;6.56;100.00
51099;BME280;37146;48.210;16.234;2022-11-09T05:33:46;98948.94;;;6.57;100.00
51099;BME280;37146;48.210;16.234;2022-11-09T05:36:11;98935.66;;;6.57;100.00
51099;BME280;37146;48.210;16.234;2022-11-09T05:38:37;98944.44;;;6.59;100.00
51099;BME280;37146;48.210;16.234;2022-11-09T05:41:02;98947.00;;;6.62;100.00
51099;BME280;37146;48.210;16.234;2022-11-09T05:43:27;98949.59;;;6.63;100.00
51099;BME280;37146;48.210;16.234;2022-11-09T05:45:52;98947.84;;;6.62;100.00
51099;BME280;37146;48.210;16.234;2022-11-09T05:48:17;98946.91;;;6.65;100.00
51099;BME280;37146;48.210;16.234;2022-11-09T05:50:43;98951.31;;;6.66;100.00
51099;BME280;37146;48.210;16.234;2022-11-09T05:53:09;98940.66;;;6.66;100.00
51099;BME280;37146;48.210;16.234;2022-11-09T05:55:34;98944.19;;;6.67;100.00
51099;BME280;37146;48.210;16.234;2022-11-09T05:58:00;98943.25;;;6.68;100.00
51099;BME280;37146;48.210;16.234;2022-11-09T06:00:25;98945.91;;;6.68;100.00
51099;BME280;37146;48.210;16.234;2022-11-09T06:02:50;98943.25;;;6.68;100.00
51099;BME280;37146;48.210;16.234;2022-11-09T06:05:16;98945.03;;;6.67;100.00
51099;BME280;37146;48.210;16.234;2022-11-09T06:07:41;98951.22;;;6.68;100.00
51099;BME280;37146;48.210;16.234;2022-11-09T06:10:07;98954.72;;;6.70;100.00
51099;BME280;37146;48.210;16.234;2022-11-09T06:12:32;98949.38;;;6.70;100.00
51099;BME280;37146;48.210;16.234;2022-11-09T06:14:58;98947.53;;;6.72;100.00
51099;BME280;37146;48.210;16.234;2022-11-09T06:17:23;98944.81;;;6.73;100.00
51099;BME280;37146;48.210;16.234;2022-11-09T06:19:48;98948.41;;;6.72;100.00
51099;BME280;37146;48.210;16.234;2022-11-09T06:22:13;98945.66;;;6.74;100.00
51099;BME280;37146;48.210;16.234;2022-11-09T06:24:39;98951.00;;;6.74;100.00
51099;BME280;37146;48.210;16.234;2022-11-09T06:27:04;98954.56;;;6.73;100.00
51099;BME280;37146;48.210;16.234;2022-11-09T06:29:29;98947.41;;;6.75;100.00
51099;BME280;37146;48.210;16.234;2022-11-09T06:31:54;98943.78;;;6.77;100.00
51099;BME280;37146;48.210;16.234;2022-11-09T06:34:19;98950.06;;;6.75;100.00
51099;BME280;37146;48.210;16.234;2022-11-09T06:36:45;98943.84;;;6.76;100.00
51099;BME280;37146;48.210;16.234;2022-11-09T06:39:10;98944.72;;;6.76;100.00
51099;BME280;37146;48.210;16.234;2022-11-09T06:41:35;98942.91;;;6.77;100.00
51099;BME280;37146;48.210;16.234;2022-11-09T06:44:00;98941.28;;;6.73;100.00
51099;BME280;37146;48.210;16.234;2022-11-09T06:46:26;98940.19;;;6.78;100.00
51099;BME280;37146;48.210;16.234;2022-11-09T06:48:51;98932.28;;;6.77;100.00
51099;BME280;37146;48.210;16.234;2022-11-09T06:51:16;98935.03;;;6.74;100.00
51099;BME280;37146;48.210;16.234;2022-11-09T06:53:42;98941.13;;;6.77;100.00
51099;BME280;37146;48.210;16.234;2022-11-09T06:56:07;98942.97;;;6.75;100.00
51099;BME280;37146;48.210;16.234;2022-11-09T06:58:33;98941.16;;;6.76;100.00
51099;BME280;37146;48.210;16.234;2022-11-09T07:00:58;98942.91;;;6.77;100.00
51099;BME280;37146;48.210;16.234;2022-11-09T07:03:24;98945.56;;;6.77;100.00
51099;BME280;37146;48.210;16.234;2022-11-09T07:05:49;98943.94;;;6.73;100.00
51099;BME280;37146;48.210;16.234;2022-11-09T07:08:15;98943.78;;;6.77;100.00
51099;BME280;37146;48.210;16.234;2022-11-09T07:10:41;98942.09;;;6.75;100.00
51099;BME280;37146;48.210;16.234;2022-11-09T07:13:06;98938.78;;;6.68;100.00
51099;BME280;37146;48.210;16.234;2022-11-09T07:15:32;98941.25;;;6.74;100.00
51099;BME280;37146;48.210;16.234;2022-11-09T07:17:58;98939.50;;;6.73;100.00
51099;BME280;37146;48.210;16.234;2022-11-09T07:20:23;98936.78;;;6.75;100.00
51099;BME280;37146;48.210;16.234;2022-11-09T07:22:49;98936.78;;;6.75;100.00
51099;BME280;37146;48.210;16.234;2022-11-09T07:25:15;98941.06;;;6.79;100.00
51099;BME280;37146;48.210;16.234;2022-11-09T07:27:40;98937.50;;;6.80;100.00
51099;BME280;37146;48.210;16.234;2022-11-09T07:30:06;98941.13;;;6.77;100.00
51099;BME280;37146;48.210;16.234;2022-11-09T07:32:32;98946.31;;;6.80;100.00
51099;BME280;37146;48.210;16.234;2022-11-09T07:34:57;98955.09;;;6.83;100.00
51099;BME280;37146;48.210;16.234;2022-11-09T07:37:22;98963.16;;;6.81;100.00
51099;BME280;37146;48.210;16.234;2022-11-09T07:39:47;98954.34;;;6.79;100.00
51099;BME280;37146;48.210;16.234;2022-11-09T07:42:12;98957.00;;;6.79;100.00
51099;BME280;37146;48.210;16.234;2022-11-09T07:44:38;98955.38;;;6.75;100.00
51099;BME280;37146;48.210;16.234;2022-11-09T07:47:03;98957.19;;;6.74;100.00
51099;BME280;37146;48.210;16.234;2022-11-09T07:49:28;98965.09;;;6.76;100.00
51099;BME280;37146;48.210;16.234;2022-11-09T07:51:53;98974.06;;;6.73;100.00
51099;BME280;37146;48.210;16.234;2022-11-09T07:54:19;98972.16;;;6.77;100.00
51099;BME280;37146;48.210;16.234;2022-11-09T07:56:44;98981.94;;;6.76;100.00
51099;BME280;37146;48.210;16.234;2022-11-09T07:59:09;98982.78;;;6.77;100.00
51099;BME280;37146;48.210;16.234;2022-11-09T08:01:34;98986.25;;;6.79;100.00
51099;BME280;37146;48.210;16.234;2022-11-09T08:04:00;98981.78;;;6.79;100.00
51099;BME280;37146;48.210;16.234;2022-11-09T08:06:25;98984.53;;;6.78;100.00
51099;BME280;37146;48.210;16.234;2022-11-09T08:08:54;98981.03;;;6.76;100.00
51099;BME280;37146;48.210;16.234;2022-11-09T08:11:20;98976.47;;;6.79;100.00
51099;BME280;37146;48.210;16.234;2022-11-09T08:13:45;98976.44;;;6.81;100.00
51099;BME280;37146;48.210;16.234;2022-11-09T08:16:10;98976.47;;;6.79;100.00
51099;BME280;37146;48.210;16.234;2022-11-09T08:18:35;98977.38;;;6.80;100.00
51099;BME280;37146;48.210;16.234;2022-11-09T08:21:01;98981.69;;;6.83;100.00
51099;BME280;37146;48.210;16.234;2022-11-09T08:23:27;98978.97;;;6.84;100.00
51099;BME280;37146;48.210;16.234;2022-11-09T08:25:52;98960.34;;;6.84;100.00
51099;BME280;37146;48.210;16.234;2022-11-09T08:28:18;98955.91;;;6.85;100.00
51099;BME280;37146;48.210;16.234;2022-11-09T08:30:43;98961.16;;;6.86;100.00
51099;BME280;37146;48.210;16.234;2022-11-09T08:33:09;98960.31;;;6.86;100.00
51099;BME280;37146;48.210;16.234;2022-11-09T08:35:35;98966.38;;;6.89;100.00
51099;BME280;37146;48.210;16.234;2022-11-09T08:38:01;98964.75;;;6.85;100.00
51099;BME280;37146;48.210;16.234;2022-11-09T08:40:27;98963.63;;;6.92;100.00
51099;BME280;37146;48.210;16.234;2022-11-09T08:42:53;98954.13;;;6.85;100.00
51099;BME280;37146;48.210;16.234;2022-11-09T08:45:18;98956.38;;;6.96;100.00
51099;BME280;37146;48.210;16.234;2022-11-09T08:47:44;98951.81;;;7.00;100.00
51099;BME280;37146;48.210;16.234;2022-11-09T08:50:10;98964.25;;;6.99;100.00
51099;BME280;37146;48.210;16.234;2022-11-09T08:52:35;98964.88;;;7.06;100.00
51099;BME280;37146;48.210;16.234;2022-11-09T08:55:01;98967.78;;;7.00;100.00
51099;BME280;37146;48.210;16.234;2022-11-09T08:57:26;98970.53;;;6.96;100.00
51099;BME280;37146;48.210;16.234;2022-11-09T08:59:52;98967.66;;;7.03;100.00
51099;BME280;37146;48.210;16.234;2022-11-09T09:02:17;98978.41;;;7.00;100.00
51099;BME280;37146;48.210;16.234;2022-11-09T09:04:42;98986.56;;;6.95;100.00
51099;BME280;37146;48.210;16.234;2022-11-09T09:07:08;98989.84;;;7.02;100.00
51099;BME280;37146;48.210;16.234;2022-11-09T09:09:33;98996.19;;;6.97;100.00
51099;BME280;37146;48.210;16.234;2022-11-09T09:11:59;98989.03;;;7.00;100.00
51099;BME280;37146;48.210;16.234;2022-11-09T09:14:24;98987.19;;;7.02;100.00
51099;BME280;37146;48.210;16.234;2022-11-09T09:16:49;98995.34;;;6.97;100.00
51099;BME280;37146;48.210;16.234;2022-11-09T09:19:15;98995.44;;;6.94;100.00
51099;BME280;37146;48.210;16.234;2022-11-09T09:21:40;99007.09;;;6.91;100.00
51099;BME280;37146;48.210;16.234;2022-11-09T09:24:05;99009.66;;;6.93;100.00
51099;BME280;37146;48.210;16.234;2022-11-09T09:26:31;99003.50;;;6.92;100.00
51099;BME280;37146;48.210;16.234;2022-11-09T09:28:56;99008.66;;;6.97;100.00
51099;BME280;37146;48.210;16.234;2022-11-09T09:31:21;99007.84;;;6.95;100.00
51099;BME280;37146;48.210;16.234;2022-11-09T09:33:46;99004.31;;;6.94;100.00
51099;BME280;37146;48.210;16.234;2022-11-09T09:36:16;99003.31;;;6.97;100.00
51099;BME280;37146;48.210;16.234;2022-11-09T09:38:41;99001.41;;;7.01;100.00
51099;BME280;37146;48.210;16.234;2022-11-09T09:41:06;99002.25;;;7.01;100.00
51099;BME280;37146;48.210;16.234;2022-11-09T09:43:41;99004.88;;;7.03;100.00
51099;BME280;37146;48.210;16.234;2022-11-09T09:46:16;99003.16;;;7.02;100.00
51099;BME280;37146;48.210;16.234;2022-11-09T09:48:44;99010.22;;;7.03;100.00
51099;BME280;37146;48.210;16.234;2022-11-09T09:51:20;99004.66;;;7.09;100.00
51099;BME280;37146;48.210;16.234;2022-11-09T09:53:51;99010.06;;;7.06;100.00
51099;BME280;37146;48.210;16.234;2022-11-09T09:58:45;98999.56;;;7.03;100.00
51099;BME280;37146;48.210;16.234;2022-11-09T10:01:14;99008.13;;;7.11;100.00
51099;BME280;37146;48.210;16.234;2022-11-09T10:03:40;99010.53;;;7.17;100.00
51099;BME280;37146;48.210;16.234;2022-11-09T10:08:40;99016.47;;;7.25;100.00
51099;BME280;37146;48.210;16.234;2022-11-09T10:13:43;99017.72;;;7.15;100.00
51099;BME280;37146;48.210;16.234;2022-11-09T10:16:24;99011.34;;;7.19;100.00
51099;BME280;37146;48.210;16.234;2022-11-09T10:26:46;99016.31;;;7.28;100.00
51099;BME280;37146;48.210;16.234;2022-11-09T10:31:43;99022.59;;;7.27;100.00
51099;BME280;37146;48.210;16.234;2022-11-09T10:34:15;99013.66;;;7.28;100.00
51099;BME280;37146;48.210;16.234;2022-11-09T10:39:25;99017.41;;;7.23;100.00
51099;BME280;37146;48.210;16.234;2022-11-09T10:41:51;99018.06;;;7.30;100.00
51099;BME280;37146;48.210;16.234;2022-11-09T10:44:17;99018.75;;;7.35;100.00
51099;BME280;37146;48.210;16.234;2022-11-09T10:47:02;99014.25;;;7.37;100.00
51099;BME280;37146;48.210;16.234;2022-11-09T10:49:28;99018.66;;;7.38;100.00
51099;BME280;37146;48.210;16.234;2022-11-09T10:51:53;99020.31;;;7.40;100.00
51099;BME280;37146;48.210;16.234;2022-11-09T10:56:45;99017.84;;;7.36;100.00
51099;BME280;37146;48.210;16.234;2022-11-09T11:01:54;99018.50;;;7.41;100.00
51099;BME280;37146;48.210;16.234;2022-11-09T11:04:21;99019.16;;;7.48;100.00
51099;BME280;37146;48.210;16.234;2022-11-09T11:06:47;99010.78;;;7.35;100.00
51099;BME280;37146;48.210;16.234;2022-11-09T11:09:14;99011.78;;;7.32;100.00
51099;BME280;37146;48.210;16.234;2022-11-09T11:11:40;99012.72;;;7.30;100.00
51099;BME280;37146;48.210;16.234;2022-11-09T11:14:13;99009.59;;;7.42;100.00
51099;BME280;37146;48.210;16.234;2022-11-09T11:16:38;99014.38;;;7.56;100.00
51099;BME280;37146;48.210;16.234;2022-11-09T11:19:04;99018.28;;;7.47;100.00
51099;BME280;37146;48.210;16.234;2022-11-09T11:21:30;99012.72;;;7.53;100.00
51099;BME280;37146;48.210;16.234;2022-11-09T11:24:03;99015.16;;;7.60;100.00
51099;BME280;37146;48.210;16.234;2022-11-09T11:29:11;99013.44;;;7.57;100.00
51099;BME280;37146;48.210;16.234;2022-11-09T11:31:39;99008.13;;;7.57;100.00
51099;BME280;37146;48.210;16.234;2022-11-09T11:34:07;99012.78;;;7.52;100.00
51099;BME280;37146;48.210;16.234;2022-11-09T11:39:14;99014.56;;;7.51;100.00
51099;BME280;37146;48.210;16.234;2022-11-09T11:47:07;99014.53;;;7.53;100.00
51099;BME280;37146;48.210;16.234;2022-11-09T11:57:20;99014.16;;;7.62;100.00
51099;BME280;37146;48.210;16.234;2022-11-09T11:59:51;99010.69;;;7.60;100.00
51099;BME280;37146;48.210;16.234;2022-11-09T12:05:27;99009.94;;;7.56;100.00
51099;BME280;37146;48.210;16.234;2022-11-09T12:07:57;99003.81;;;7.54;100.00
51099;BME280;37146;48.210;16.234;2022-11-09T12:10:48;99010.78;;;7.57;100.00
51099;BME280;37146;48.210;16.234;2022-11-09T12:15:58;98998.25;;;7.61;100.00
51099;BME280;37146;48.210;16.234;2022-11-09T12:18:38;98999.41;;;7.53;100.00
51099;BME280;37146;48.210;16.234;2022-11-09T12:28:43;98978.13;;;7.53;100.00
51099;BME280;37146;48.210;16.234;2022-11-09T12:33:52;98983.25;;;7.58;100.00
51099;BME280;37146;48.210;16.234;2022-11-09T12:36:20;98977.00;;;7.59;100.00
51099;BME280;37146;48.210;16.234;2022-11-09T12:38:51;98979.03;;;7.52;100.00
51099;BME280;37146;48.210;16.234;2022-11-09T12:41:19;98986.00;;;7.56;100.00
51099;BME280;37146;48.210;16.234;2022-11-09T12:43:48;98980.88;;;7.50;100.00
51099;BME280;37146;48.210;16.234;2022-11-09T12:46:16;98978.75;;;7.60;100.00
51099;BME280;37146;48.210;16.234;2022-11-09T12:48:44;98975.03;;;7.64;100.00
51099;BME280;37146;48.210;16.234;2022-11-09T12:51:10;98981.31;;;7.62;100.00
51099;BME280;37146;48.210;16.234;2022-11-09T12:53:36;98975.81;;;7.66;100.00
51099;BME280;37146;48.210;16.234;2022-11-09T12:56:15;98966.16;;;7.64;100.00
51099;BME280;37146;48.210;16.234;2022-11-09T12:58:42;98974.03;;;7.67;100.00
51099;BME280;37146;48.210;16.234;2022-11-09T13:01:12;98970.44;;;7.68;100.00
51099;BME280;37146;48.210;16.234;2022-11-09T13:03:39;98975.50;;;7.74;100.00
51099;BME280;37146;48.210;16.234;2022-11-09T13:06:16;98972.84;;;7.74;100.00
51099;BME280;37146;48.210;16.234;2022-11-09T13:27:29;98993.84;;;7.60;100.00
51099;BME280;37146;48.210;16.234;2022-11-09T13:29:53;98991.97;;;7.62;100.00
51099;BME280;37146;48.210;16.234;2022-11-09T13:34:44;98991.75;;;7.68;100.00
51099;BME280;37146;48.210;16.234;2022-11-09T13:39:53;98997.19;;;7.65;100.00
51099;BME280;37146;48.210;16.234;2022-11-09T13:42:29;99000.78;;;7.64;100.00
51099;BME280;37146;48.210;16.234;2022-11-09T13:47:40;99000.72;;;7.65;100.00
51099;BME280;37146;48.210;16.234;2022-11-09T13:50:17;99009.47;;;7.69;100.00
51099;BME280;37146;48.210;16.234;2022-11-09T13:52:52;99003.31;;;7.67;100.00
51099;BME280;37146;48.210;16.234;2022-11-09T13:57:50;99006.66;;;7.72;100.00
51099;BME280;37146;48.210;16.234;2022-11-09T14:00:17;99008.38;;;7.73;100.00
51099;BME280;37146;48.210;16.234;2022-11-09T14:02:57;99012.03;;;7.70;100.00
51099;BME280;37146;48.210;16.234;2022-11-09T14:07:48;99007.34;;;7.77;100.00
51099;BME280;37146;48.210;16.234;2022-11-09T14:10:20;99004.50;;;7.82;100.00
51099;BME280;37146;48.210;16.234;2022-11-09T14:15:16;99006.03;;;7.87;100.00
51099;BME280;37146;48.210;16.234;2022-11-09T14:22:58;99010.00;;;7.77;100.00
51099;BME280;37146;48.210;16.234;2022-11-09T14:25:24;99013.09;;;7.88;100.00
51099;BME280;37146;48.210;16.234;2022-11-09T14:27:53;99012.19;;;7.89;100.00
51099;BME280;37146;48.210;16.234;2022-11-09T14:30:26;98996.00;;;7.94;100.00
51099;BME280;37146;48.210;16.234;2022-11-09T14:32:52;98995.16;;;7.94;100.00